Shinkai Maru — JJ4012 — position and weather

sailwx.info

Track history (hours):
 
Tides and Currents Weather Stations Pressure Air Temp Water Temp Dewpoint Dewpoint Depression Visibility Wind Speed Wind Dir Waves Ship Positions

Shinkai Maru

Last reported at 2016-Apr-28 15:33 UTC. Time now 2016-Apr-29 06:08 UTC.
Position N 34°08' E 135°03'.

Length 76 m; draft 4.1 m.

Type: Cargo ship. MMSI: 431301346.

Date/timePositionNaut miles runAvg speedWind from/ knotsBaromVisibWave heightAir tempDewpointWater temp
2016-Apr-28 15:33N 34°08' E 135°03'5 4.8
2016-Apr-28 14:29N 34°10' E 135°09'0 0.0
2016-Apr-28 13:29N 34°10' E 135°09'0 0.0
2016-Apr-28 12:32N 34°10' E 135°09'0 0.0
2016-Apr-28 11:32N 34°10' E 135°09'0 0.0
2016-Apr-28 10:32N 34°10' E 135°09'0 0.0
2016-Apr-28 09:26N 34°10' E 135°09'0 0.0
2016-Apr-28 08:17N 34°10' E 135°09'0 0.0
2016-Apr-28 06:29N 34°10' E 135°09'0 0.0
2016-Apr-28 05:29N 34°10' E 135°09'0 0.0
2016-Apr-28 04:29N 34°10' E 135°09'0 0.0
2016-Apr-28 03:29N 34°10' E 135°09'0 0.0
2016-Apr-28 02:32N 34°10' E 135°09'0 0.1
2016-Apr-28 01:34N 34°10' E 135°09'1110.5
2016-Apr-28 00:28N 34°18' E 134°59'1111.7
2016-Apr-27 23:33N 34°29' E 135°01'9 8.3
2016-Apr-27 22:25N 34°36' E 134°55'7 0.7
2016-Apr-27 12:08N 34°41' E 134°49'812.6
2016-Apr-27 11:32N 34°37' E 134°57'8 8.5
2016-Apr-27 10:32N 34°31' E 135°04'1711.7
2016-Apr-27 09:07N 34°15' E 134°59'610.0
2016-Apr-27 08:33N 34°09' E 134°59'24210.0
2016-Apr-26 08:26N 35°10' E 139°44'8 9.7
2016-Apr-26 07:33N 35°19' E 139°43'9 9.4
2016-Apr-26 06:33N 35°27' E 139°48'1111.2
2016-Apr-26 05:33N 35°36' E 139°57'5 4.6
2016-Apr-26 04:29N 35°41' E 139°58'0 0.0
2016-Apr-26 03:32N 35°41' E 139°58'0 0.0
2016-Apr-26 02:32N 35°41' E 139°58'0 0.0
2016-Apr-26 01:32N 35°41' E 139°58'0 0.0
2016-Apr-26 00:32N 35°41' E 139°58'0 0.0
2016-Apr-25 23:32N 35°41' E 139°58'0 0.0
2016-Apr-25 22:32N 35°41' E 139°58'0 0.0
2016-Apr-25 21:32N 35°41' E 139°58'0 0.0
2016-Apr-25 20:32N 35°41' E 139°58'0 0.0
2016-Apr-25 19:23N 35°41' E 139°58'0 0.0
2016-Apr-25 18:32N 35°41' E 139°58'0 0.0
2016-Apr-25 17:32N 35°41' E 139°58'0 0.0
2016-Apr-25 16:29N 35°41' E 139°58'0 0.0
2016-Apr-25 15:26N 35°41' E 139°58'0 0.0
2016-Apr-25 14:32N 35°41' E 139°58'0 0.0
2016-Apr-25 13:32N 35°41' E 139°58'0 0.0
2016-Apr-25 12:29N 35°41' E 139°58'0 0.0
2016-Apr-25 11:29N 35°41' E 139°58'1 0.6
2016-Apr-25 10:33N 35°40' E 139°57'10 9.6
2016-Apr-25 09:33N 35°31' E 139°54'1212.0
2016-Apr-25 08:33N 35°21' E 139°45'1111.5
2016-Apr-25 07:33N 35°10' E 139°47'244 7.1
2016-Apr-23 21:25N 34°13' E 134°58'1212.2
2016-Apr-23 20:26N 34°25' E 135°01'1112.0
2016-Apr-23 19:33N 34°36' E 135°03'1312.8
2016-Apr-23 18:33N 34°41' E 134°49'5 0.3
2016-Apr-23 00:17N 34°38' E 134°54'1013.4
2016-Apr-22 23:33N 34°36' E 135°05'8 7.8
2016-Apr-22 22:30N 34°39' E 135°15'0 0.0
2016-Apr-22 21:24N 34°39' E 135°15'2 2.9
2016-Apr-22 20:33N 34°36' E 135°15'1211.7
2016-Apr-22 19:33N 34°26' E 135°08'1310.7
2016-Apr-22 18:20N 34°15' E 134°60'911.2
2016-Apr-22 17:33N 34°06' E 135°01'  
2016-Apr-19 09:07N 35°08' E 139°42'711.5
2016-Apr-19 08:31N 35°15' E 139°46'1111.0
2016-Apr-19 07:33N 35°25' E 139°43'1211.6
2016-Apr-19 06:33N 35°33' E 139°54'8 8.5
2016-Apr-19 05:33N 35°41' E 139°57'0 0.0
2016-Apr-19 04:30N 35°41' E 139°57'0 0.0
2016-Apr-19 03:33N 35°41' E 139°57'0 0.0
2016-Apr-19 02:33N 35°41' E 139°57'0 0.0
2016-Apr-19 01:33N 35°41' E 139°57'3 3.4
2016-Apr-19 00:33N 35°37' E 139°58'1211.7
2016-Apr-18 23:34N 35°28' E 139°50'1110.8
2016-Apr-18 22:34N 35°18' E 139°45'1110.6
2016-Apr-18 21:33N 35°07' E 139°45'  
Track history (hours):
 
Tides and Currents Weather Stations Pressure Air Temp Water Temp Dewpoint Dewpoint Depression Visibility Wind Speed Wind Dir Waves Ship Positions

Shinkai Maru

Last reported at 2016-Apr-28 15:33 UTC. Time now 2016-Apr-29 06:08 UTC.
Position N 34°08' E 135°03'.

Length 76 m; draft 4.1 m.

Type: Cargo ship. MMSI: 431301346.

Date/timePositionNaut miles runAvg speedWind from/ knotsBaromVisibWave heightAir tempDewpointWater temp
2016-Apr-28 15:33N 34°08' E 135°03'5 4.8
2016-Apr-28 14:29N 34°10' E 135°09'0 0.0
2016-Apr-28 13:29N 34°10' E 135°09'0 0.0
2016-Apr-28 12:32N 34°10' E 135°09'0 0.0
2016-Apr-28 11:32N 34°10' E 135°09'0 0.0
2016-Apr-28 10:32N 34°10' E 135°09'0 0.0
2016-Apr-28 09:26N 34°10' E 135°09'0 0.0
2016-Apr-28 08:17N 34°10' E 135°09'0 0.0
2016-Apr-28 06:29N 34°10' E 135°09'0 0.0
2016-Apr-28 05:29N 34°10' E 135°09'0 0.0
2016-Apr-28 04:29N 34°10' E 135°09'0 0.0
2016-Apr-28 03:29N 34°10' E 135°09'0 0.0
2016-Apr-28 02:32N 34°10' E 135°09'0 0.1
2016-Apr-28 01:34N 34°10' E 135°09'1110.5
2016-Apr-28 00:28N 34°18' E 134°59'1111.7
2016-Apr-27 23:33N 34°29' E 135°01'9 8.3
2016-Apr-27 22:25N 34°36' E 134°55'7 0.7
2016-Apr-27 12:08N 34°41' E 134°49'812.6
2016-Apr-27 11:32N 34°37' E 134°57'8 8.5
2016-Apr-27 10:32N 34°31' E 135°04'1711.7
2016-Apr-27 09:07N 34°15' E 134°59'610.0
2016-Apr-27 08:33N 34°09' E 134°59'24210.0
2016-Apr-26 08:26N 35°10' E 139°44'8 9.7
2016-Apr-26 07:33N 35°19' E 139°43'9 9.4
2016-Apr-26 06:33N 35°27' E 139°48'1111.2
2016-Apr-26 05:33N 35°36' E 139°57'5 4.6
2016-Apr-26 04:29N 35°41' E 139°58'0 0.0
2016-Apr-26 03:32N 35°41' E 139°58'0 0.0
2016-Apr-26 02:32N 35°41' E 139°58'0 0.0
2016-Apr-26 01:32N 35°41' E 139°58'0 0.0
2016-Apr-26 00:32N 35°41' E 139°58'0 0.0
2016-Apr-25 23:32N 35°41' E 139°58'0 0.0
2016-Apr-25 22:32N 35°41' E 139°58'0 0.0
2016-Apr-25 21:32N 35°41' E 139°58'0 0.0
2016-Apr-25 20:32N 35°41' E 139°58'0 0.0
2016-Apr-25 19:23N 35°41' E 139°58'0 0.0
2016-Apr-25 18:32N 35°41' E 139°58'0 0.0
2016-Apr-25 17:32N 35°41' E 139°58'0 0.0
2016-Apr-25 16:29N 35°41' E 139°58'0 0.0
2016-Apr-25 15:26N 35°41' E 139°58'0 0.0
2016-Apr-25 14:32N 35°41' E 139°58'0 0.0
2016-Apr-25 13:32N 35°41' E 139°58'0 0.0
2016-Apr-25 12:29N 35°41' E 139°58'0 0.0
2016-Apr-25 11:29N 35°41' E 139°58'1 0.6
2016-Apr-25 10:33N 35°40' E 139°57'10 9.6
2016-Apr-25 09:33N 35°31' E 139°54'1212.0
2016-Apr-25 08:33N 35°21' E 139°45'1111.5
2016-Apr-25 07:33N 35°10' E 139°47'244 7.1
2016-Apr-23 21:25N 34°13' E 134°58'1212.2
2016-Apr-23 20:26N 34°25' E 135°01'1112.0
2016-Apr-23 19:33N 34°36' E 135°03'1312.8
2016-Apr-23 18:33N 34°41' E 134°49'5 0.3
2016-Apr-23 00:17N 34°38' E 134°54'1013.4
2016-Apr-22 23:33N 34°36' E 135°05'8 7.8
2016-Apr-22 22:30N 34°39' E 135°15'0 0.0
2016-Apr-22 21:24N 34°39' E 135°15'2 2.9
2016-Apr-22 20:33N 34°36' E 135°15'1211.7
2016-Apr-22 19:33N 34°26' E 135°08'1310.7
2016-Apr-22 18:20N 34°15' E 134°60'911.2
2016-Apr-22 17:33N 34°06' E 135°01'  
2016-Apr-19 09:07N 35°08' E 139°42'711.5
2016-Apr-19 08:31N 35°15' E 139°46'1111.0
2016-Apr-19 07:33N 35°25' E 139°43'1211.6
2016-Apr-19 06:33N 35°33' E 139°54'8 8.5
2016-Apr-19 05:33N 35°41' E 139°57'0 0.0
2016-Apr-19 04:30N 35°41' E 139°57'0 0.0
2016-Apr-19 03:33N 35°41' E 139°57'0 0.0
2016-Apr-19 02:33N 35°41' E 139°57'0 0.0
2016-Apr-19 01:33N 35°41' E 139°57'3 3.4
2016-Apr-19 00:33N 35°37' E 139°58'1211.7
2016-Apr-18 23:34N 35°28' E 139°50'1110.8
2016-Apr-18 22:34N 35°18' E 139°45'1110.6
2016-Apr-18 21:33N 35°07' E 139°45'  

Dump ship's entire track history